sensor_id;sensor_type;location;lat;lon;timestamp;pressure;altitude;pressure_sealevel;temperature;humidity
25232;BME280;13176;51.140;6.290;2023-01-30T00:00:58;101286.66;;;6.79;85.27
25232;BME280;13176;51.140;6.290;2023-01-30T00:03:26;101273.50;;;6.64;85.18
25232;BME280;13176;51.140;6.290;2023-01-30T00:05:55;101262.06;;;6.44;85.33
25232;BME280;13176;51.140;6.290;2023-01-30T00:08:22;101227.22;;;6.18;86.22
25232;BME280;13176;51.140;6.290;2023-01-30T00:10:48;101276.06;;;6.61;85.75
25232;BME280;13176;51.140;6.290;2023-01-30T00:13:15;101242.94;;;6.35;86.15
25232;BME280;13176;51.140;6.290;2023-01-30T00:15:42;101218.28;;;6.71;84.20
25232;BME280;13176;51.140;6.290;2023-01-30T00:18:09;101231.06;;;6.53;85.60
25232;BME280;13176;51.140;6.290;2023-01-30T00:20:35;101222.28;;;6.42;85.63
25232;BME280;13176;51.140;6.290;2023-01-30T00:23:02;101246.59;;;6.50;86.99
25232;BME280;13176;51.140;6.290;2023-01-30T00:25:29;101217.25;;;6.54;86.39
25232;BME280;13176;51.140;6.290;2023-01-30T00:28:00;101251.69;;;6.44;88.04
25232;BME280;13176;51.140;6.290;2023-01-30T00:30:27;101255.47;;;6.73;86.98
25232;BME280;13176;51.140;6.290;2023-01-30T00:32:55;101081.06;;;5.97;86.03
25232;BME280;13176;51.140;6.290;2023-01-30T00:35:22;101215.88;;;6.92;85.02
25232;BME280;13176;51.140;6.290;2023-01-30T00:37:57;101186.47;;;6.87;84.43
25232;BME280;13176;51.140;6.290;2023-01-30T00:40:24;101191.66;;;6.87;85.01
25232;BME280;13176;51.140;6.290;2023-01-30T00:42:51;101131.59;;;6.42;86.04
25232;BME280;13176;51.140;6.290;2023-01-30T00:45:43;101149.88;;;6.54;85.66
25232;BME280;13176;51.140;6.290;2023-01-30T00:48:29;101179.56;;;6.92;84.61
25232;BME280;13176;51.140;6.290;2023-01-30T00:50:56;101151.72;;;6.70;84.92
25232;BME280;13176;51.140;6.290;2023-01-30T00:53:22;101195.06;;;6.83;86.69
25232;BME280;13176;51.140;6.290;2023-01-30T00:55:50;101098.59;;;6.26;87.44
25232;BME280;13176;51.140;6.290;2023-01-30T00:58:17;101165.66;;;6.81;86.36
25232;BME280;13176;51.140;6.290;2023-01-30T01:00:43;101150.19;;;6.90;85.10
25232;BME280;13176;51.140;6.290;2023-01-30T01:03:10;101166.50;;;6.77;85.94
25232;BME280;13176;51.140;6.290;2023-01-30T01:05:36;101143.84;;;6.55;87.74
25232;BME280;13176;51.140;6.290;2023-01-30T01:08:03;101138.88;;;6.82;86.15
25232;BME280;13176;51.140;6.290;2023-01-30T01:10:29;101125.94;;;6.85;84.76
25232;BME280;13176;51.140;6.290;2023-01-30T01:12:56;101155.34;;;6.87;87.44
25232;BME280;13176;51.140;6.290;2023-01-30T01:15:23;101138.00;;;6.81;86.69
25232;BME280;13176;51.140;6.290;2023-01-30T01:17:51;101188.34;;;7.06;86.94
25232;BME280;13176;51.140;6.290;2023-01-30T01:20:18;101160.53;;;6.87;87.04
25232;BME280;13176;51.140;6.290;2023-01-30T01:22:45;101162.47;;;7.16;85.74
25232;BME280;13176;51.140;6.290;2023-01-30T01:25:15;101159.91;;;7.18;85.82
25232;BME280;13176;51.140;6.290;2023-01-30T01:27:42;101167.44;;;6.85;86.77
25232;BME280;13176;51.140;6.290;2023-01-30T01:30:09;101164.81;;;6.83;87.59
25232;BME280;13176;51.140;6.290;2023-01-30T01:32:35;101139.00;;;6.98;86.89
25232;BME280;13176;51.140;6.290;2023-01-30T01:35:02;101181.28;;;6.87;88.44
25232;BME280;13176;51.140;6.290;2023-01-30T01:37:28;101135.41;;;6.80;87.05
25232;BME280;13176;51.140;6.290;2023-01-30T01:39:54;101157.25;;;7.12;86.84
25232;BME280;13176;51.140;6.290;2023-01-30T01:42:39;101165.94;;;7.14;86.44
25232;BME280;13176;51.140;6.290;2023-01-30T01:47:40;101167.53;;;6.98;87.62
25232;BME280;13176;51.140;6.290;2023-01-30T01:50:13;101165.97;;;7.20;86.45
25232;BME280;13176;51.140;6.290;2023-01-30T01:52:41;101123.91;;;6.51;87.93
25232;BME280;13176;51.140;6.290;2023-01-30T01:55:09;101165.03;;;7.07;87.12
25232;BME280;13176;51.140;6.290;2023-01-30T01:58:01;101141.50;;;6.85;87.85
25232;BME280;13176;51.140;6.290;2023-01-30T02:00:29;101165.84;;;7.05;88.63
25232;BME280;13176;51.140;6.290;2023-01-30T02:03:03;101124.25;;;6.93;88.09
25232;BME280;13176;51.140;6.290;2023-01-30T02:05:37;101140.50;;;6.71;90.33
25232;BME280;13176;51.140;6.290;2023-01-30T02:08:09;101117.16;;;6.68;90.64
25232;BME280;13176;51.140;6.290;2023-01-30T02:11:02;101141.69;;;7.12;89.23
25232;BME280;13176;51.140;6.290;2023-01-30T02:13:31;101141.69;;;7.12;89.44
25232;BME280;13176;51.140;6.290;2023-01-30T02:15:59;101133.88;;;7.04;90.42
25232;BME280;13176;51.140;6.290;2023-01-30T02:18:27;101098.84;;;6.52;92.76
25232;BME280;13176;51.140;6.290;2023-01-30T02:32:30;101116.59;;;7.12;92.04
25232;BME280;13176;51.140;6.290;2023-01-30T02:38:03;101084.69;;;7.21;90.52
25232;BME280;13176;51.140;6.290;2023-01-30T02:40:40;101103.75;;;7.26;91.80
25232;BME280;13176;51.140;6.290;2023-01-30T02:45:45;101034.22;;;6.74;92.69
25232;BME280;13176;51.140;6.290;2023-01-30T02:48:22;101029.94;;;6.77;93.60
25232;BME280;13176;51.140;6.290;2023-01-30T02:50:58;101064.78;;;7.20;91.64
25232;BME280;13176;51.140;6.290;2023-01-30T02:53:33;101039.56;;;6.93;92.44
25232;BME280;13176;51.140;6.290;2023-01-30T02:56:00;101079.53;;;7.28;92.37
25232;BME280;13176;51.140;6.290;2023-01-30T02:58:42;101048.34;;;7.18;92.06
25232;BME280;13176;51.140;6.290;2023-01-30T03:01:33;101074.19;;;7.03;92.81
25232;BME280;13176;51.140;6.290;2023-01-30T03:04:19;101079.44;;;7.12;92.91
25232;BME280;13176;51.140;6.290;2023-01-30T03:10:06;101060.34;;;7.04;93.43
25232;BME280;13176;51.140;6.290;2023-01-30T03:15:27;101039.78;;;7.37;91.81
25232;BME280;13176;51.140;6.290;2023-01-30T03:17:54;101017.03;;;6.85;93.58
25232;BME280;13176;51.140;6.290;2023-01-30T03:20:22;101030.22;;;7.28;92.03
25232;BME280;13176;51.140;6.290;2023-01-30T03:22:48;100991.25;;;7.18;91.58
25232;BME280;13176;51.140;6.290;2023-01-30T03:25:19;101019.13;;;7.65;89.66
25232;BME280;13176;51.140;6.290;2023-01-30T03:27:49;100982.66;;;7.25;90.05
25232;BME280;13176;51.140;6.290;2023-01-30T03:30:16;101037.22;;;7.46;91.42
25232;BME280;13176;51.140;6.290;2023-01-30T03:32:43;101004.34;;;7.48;90.55
25232;BME280;13176;51.140;6.290;2023-01-30T03:35:09;100981.81;;;7.30;91.46
25232;BME280;13176;51.140;6.290;2023-01-30T03:37:36;101010.31;;;7.23;92.38
25232;BME280;13176;51.140;6.290;2023-01-30T03:40:03;101025.97;;;7.44;91.94
25232;BME280;13176;51.140;6.290;2023-01-30T03:42:29;100999.97;;;7.35;91.88
25232;BME280;13176;51.140;6.290;2023-01-30T03:44:56;100954.97;;;7.21;91.60
25232;BME280;13176;51.140;6.290;2023-01-30T03:47:22;100965.41;;;7.48;90.82
25232;BME280;13176;51.140;6.290;2023-01-30T03:49:49;100987.88;;;7.37;92.75
25232;BME280;13176;51.140;6.290;2023-01-30T03:52:15;101025.13;;;7.51;92.68
25232;BME280;13176;51.140;6.290;2023-01-30T03:54:41;101008.78;;;7.92;90.87
25232;BME280;13176;51.140;6.290;2023-01-30T03:57:08;100969.69;;;7.31;92.76
25232;BME280;13176;51.140;6.290;2023-01-30T03:59:34;100955.00;;;7.42;91.60
25232;BME280;13176;51.140;6.290;2023-01-30T04:02:01;100957.56;;;7.30;93.31
25232;BME280;13176;51.140;6.290;2023-01-30T04:04:27;101001.84;;;7.78;91.99
25232;BME280;13176;51.140;6.290;2023-01-30T04:06:54;100971.50;;;7.63;92.67
25232;BME280;13176;51.140;6.290;2023-01-30T04:09:20;100965.47;;;7.75;92.52
25232;BME280;13176;51.140;6.290;2023-01-30T04:11:47;100992.28;;;7.71;93.72
25232;BME280;13176;51.140;6.290;2023-01-30T04:14:14;100957.72;;;7.94;92.54
25232;BME280;13176;51.140;6.290;2023-01-30T04:16:40;100949.94;;;7.92;91.93
25232;BME280;13176;51.140;6.290;2023-01-30T04:19:07;100986.28;;;7.89;92.81
25232;BME280;13176;51.140;6.290;2023-01-30T04:21:33;100972.38;;;7.67;94.57
25232;BME280;13176;51.140;6.290;2023-01-30T04:23:59;100937.75;;;7.71;94.10
25232;BME280;13176;51.140;6.290;2023-01-30T04:26:26;100910.00;;;7.34;96.68
25232;BME280;13176;51.140;6.290;2023-01-30T04:28:52;100872.78;;;7.29;95.48
25232;BME280;13176;51.140;6.290;2023-01-30T04:31:19;100946.44;;;7.73;94.99
25232;BME280;13176;51.140;6.290;2023-01-30T04:33:45;100956.00;;;7.91;94.77
25232;BME280;13176;51.140;6.290;2023-01-30T04:36:11;100946.44;;;7.79;95.40
25232;BME280;13176;51.140;6.290;2023-01-30T04:38:38;100914.41;;;7.62;95.81
25232;BME280;13176;51.140;6.290;2023-01-30T04:41:04;100862.44;;;7.38;95.02
25232;BME280;13176;51.140;6.290;2023-01-30T04:43:31;100970.66;;;7.70;98.05
25232;BME280;13176;51.140;6.290;2023-01-30T04:45:58;100969.84;;;7.90;96.33
25232;BME280;13176;51.140;6.290;2023-01-30T04:48:25;100958.53;;;7.74;96.70
25232;BME280;13176;51.140;6.290;2023-01-30T04:50:53;100922.19;;;7.65;97.04
25232;BME280;13176;51.140;6.290;2023-01-30T04:53:20;100874.56;;;7.43;96.49
25232;BME280;13176;51.140;6.290;2023-01-30T04:55:47;100963.78;;;7.86;97.77
25232;BME280;13176;51.140;6.290;2023-01-30T04:58:14;100948.16;;;7.68;98.43
25232;BME280;13176;51.140;6.290;2023-01-30T05:00:41;100981.09;;;8.07;97.84
25232;BME280;13176;51.140;6.290;2023-01-30T05:03:07;100939.53;;;7.84;96.98
25232;BME280;13176;51.140;6.290;2023-01-30T05:05:34;100975.91;;;8.07;98.25
25232;BME280;13176;51.140;6.290;2023-01-30T05:08:00;100918.72;;;7.64;98.81
25232;BME280;13176;51.140;6.290;2023-01-30T05:10:27;100929.16;;;7.89;98.27
25232;BME280;13176;51.140;6.290;2023-01-30T05:12:53;100904.88;;;7.79;97.81
25232;BME280;13176;51.140;6.290;2023-01-30T05:15:20;100955.13;;;7.92;98.34
25232;BME280;13176;51.140;6.290;2023-01-30T05:17:46;100925.66;;;7.82;98.33
25232;BME280;13176;51.140;6.290;2023-01-30T05:20:13;100985.47;;;8.20;97.95
25232;BME280;13176;51.140;6.290;2023-01-30T05:22:39;100911.81;;;7.77;98.05
25232;BME280;13176;51.140;6.290;2023-01-30T05:25:06;100962.03;;;7.79;100.00
25232;BME280;13176;51.140;6.290;2023-01-30T05:27:32;100962.06;;;7.96;99.58
25232;BME280;13176;51.140;6.290;2023-01-30T05:29:59;100910.06;;;7.76;99.25
25232;BME280;13176;51.140;6.290;2023-01-30T05:32:25;100956.91;;;8.23;97.43
25232;BME280;13176;51.140;6.290;2023-01-30T05:34:52;100982.88;;;8.32;97.93
25232;BME280;13176;51.140;6.290;2023-01-30T05:37:18;100942.13;;;7.92;99.46
25232;BME280;13176;51.140;6.290;2023-01-30T05:39:45;100931.72;;;7.81;100.00
25232;BME280;13176;51.140;6.290;2023-01-30T05:42:12;100944.72;;;8.04;100.00
25232;BME280;13176;51.140;6.290;2023-01-30T05:44:39;100945.59;;;8.11;100.00
25232;BME280;13176;51.140;6.290;2023-01-30T05:47:05;100918.75;;;7.95;100.00
25232;BME280;13176;51.140;6.290;2023-01-30T05:49:32;100910.09;;;7.90;100.00
25232;BME280;13176;51.140;6.290;2023-01-30T05:51:58;100939.53;;;7.98;100.00
25232;BME280;13176;51.140;6.290;2023-01-30T05:54:25;100918.75;;;8.04;100.00
25232;BME280;13176;51.140;6.290;2023-01-30T05:56:51;100881.53;;;7.88;99.31
25232;BME280;13176;51.140;6.290;2023-01-30T05:59:17;100948.22;;;8.24;100.00
25232;BME280;13176;51.140;6.290;2023-01-30T06:01:44;100936.06;;;8.14;100.00
25232;BME280;13176;51.140;6.290;2023-01-30T06:04:10;100912.69;;;7.99;100.00
25232;BME280;13176;51.140;6.290;2023-01-30T06:06:37;100934.38;;;8.19;100.00
25232;BME280;13176;51.140;6.290;2023-01-30T06:09:03;100927.44;;;8.27;100.00
25232;BME280;13176;51.140;6.290;2023-01-30T06:11:29;100930.88;;;8.14;100.00
25232;BME280;13176;51.140;6.290;2023-01-30T06:13:56;100926.56;;;8.25;100.00
25232;BME280;13176;51.140;6.290;2023-01-30T06:16:22;100960.34;;;8.48;99.84
25232;BME280;13176;51.140;6.290;2023-01-30T06:18:49;100825.25;;;7.45;100.00
25232;BME280;13176;51.140;6.290;2023-01-30T06:21:15;100942.97;;;8.03;100.00
25232;BME280;13176;51.140;6.290;2023-01-30T06:23:42;100968.97;;;8.09;100.00
25232;BME280;13176;51.140;6.290;2023-01-30T06:26:08;100962.94;;;8.12;100.00
25232;BME280;13176;51.140;6.290;2023-01-30T06:28:35;100975.94;;;8.55;100.00
25232;BME280;13176;51.140;6.290;2023-01-30T06:31:05;100921.34;;;8.30;100.00
25232;BME280;13176;51.140;6.290;2023-01-30T06:33:31;100934.38;;;8.34;100.00
25232;BME280;13176;51.140;6.290;2023-01-30T06:35:58;100859.88;;;7.94;100.00
25232;BME280;13176;51.140;6.290;2023-01-30T06:38:24;100968.97;;;8.63;99.39
25232;BME280;13176;51.140;6.290;2023-01-30T06:40:53;100903.19;;;8.34;99.34
25232;BME280;13176;51.140;6.290;2023-01-30T06:43:20;100949.91;;;8.64;99.38
25232;BME280;13176;51.140;6.290;2023-01-30T06:45:49;100896.25;;;7.91;100.00
25232;BME280;13176;51.140;6.290;2023-01-30T06:48:16;100944.72;;;8.40;100.00
25232;BME280;13176;51.140;6.290;2023-01-30T06:50:45;100879.78;;;8.34;100.00
25232;BME280;13176;51.140;6.290;2023-01-30T06:53:12;100972.44;;;8.71;99.94
25232;BME280;13176;51.140;6.290;2023-01-30T06:55:39;100996.72;;;8.55;100.00
25232;BME280;13176;51.140;6.290;2023-01-30T06:58:11;100866.78;;;8.28;99.83
25232;BME280;13176;51.140;6.290;2023-01-30T07:00:50;100917.91;;;8.29;100.00
25232;BME280;13176;51.140;6.290;2023-01-30T07:03:17;100984.53;;;8.87;100.00
25232;BME280;13176;51.140;6.290;2023-01-30T07:05:45;100946.47;;;8.44;100.00
25232;BME280;13176;51.140;6.290;2023-01-30T07:08:12;100989.75;;;8.78;100.00
25232;BME280;13176;51.140;6.290;2023-01-30T07:10:40;101000.19;;;8.69;100.00
25232;BME280;13176;51.140;6.290;2023-01-30T07:13:07;100896.25;;;7.94;100.00
25232;BME280;13176;51.140;6.290;2023-01-30T07:15:33;100962.00;;;8.74;100.00
25232;BME280;13176;51.140;6.290;2023-01-30T07:18:00;100953.41;;;8.48;100.00
25232;BME280;13176;51.140;6.290;2023-01-30T07:20:27;100996.63;;;9.06;100.00
25232;BME280;13176;51.140;6.290;2023-01-30T07:22:55;100968.94;;;8.84;100.00
25232;BME280;13176;51.140;6.290;2023-01-30T07:25:24;100948.06;;;9.01;100.00
25232;BME280;13176;51.140;6.290;2023-01-30T07:27:56;100949.84;;;8.82;100.00
25232;BME280;13176;51.140;6.290;2023-01-30T07:30:24;101003.59;;;9.04;100.00
25232;BME280;13176;51.140;6.290;2023-01-30T07:32:52;101012.25;;;9.06;100.00
25232;BME280;13176;51.140;6.290;2023-01-30T07:35:21;100975.84;;;8.91;100.00
25232;BME280;13176;51.140;6.290;2023-01-30T07:37:48;101010.41;;;9.35;98.81
25232;BME280;13176;51.140;6.290;2023-01-30T07:40:16;101048.69;;;9.06;100.00
25232;BME280;13176;51.140;6.290;2023-01-30T07:42:43;101001.84;;;9.00;99.65
25232;BME280;13176;51.140;6.290;2023-01-30T07:45:10;100994.94;;;8.78;100.00
25232;BME280;13176;51.140;6.290;2023-01-30T07:47:36;101020.94;;;8.93;100.00
25232;BME280;13176;51.140;6.290;2023-01-30T07:50:03;100907.50;;;8.20;100.00
25232;BME280;13176;51.140;6.290;2023-01-30T07:52:30;100959.47;;;8.52;100.00
25232;BME280;13176;51.140;6.290;2023-01-30T07:54:56;101033.97;;;8.90;100.00
25232;BME280;13176;51.140;6.290;2023-01-30T07:57:26;100984.59;;;8.51;100.00
25232;BME280;13176;51.140;6.290;2023-01-30T07:59:52;100955.09;;;8.60;99.51
25232;BME280;13176;51.140;6.290;2023-01-30T08:02:19;101033.13;;;8.87;99.60
25232;BME280;13176;51.140;6.290;2023-01-30T08:04:45;100986.31;;;8.61;100.00
25232;BME280;13176;51.140;6.290;2023-01-30T08:07:12;101013.13;;;8.98;98.70
25232;BME280;13176;51.140;6.290;2023-01-30T08:09:38;101019.22;;;8.83;99.47
25232;BME280;13176;51.140;6.290;2023-01-30T08:12:04;101018.34;;;8.90;98.95
25232;BME280;13176;51.140;6.290;2023-01-30T08:14:31;100991.44;;;9.00;97.63
25232;BME280;13176;51.140;6.290;2023-01-30T08:16:57;101002.66;;;9.11;97.08
25232;BME280;13176;51.140;6.290;2023-01-30T08:19:24;100980.97;;;9.12;96.58
25232;BME280;13176;51.140;6.290;2023-01-30T08:21:50;100943.88;;;8.44;98.09
25232;BME280;13176;51.140;6.290;2023-01-30T08:24:17;101027.81;;;9.12;99.15
25232;BME280;13176;51.140;6.290;2023-01-30T08:26:43;100965.50;;;8.73;97.78
25232;BME280;13176;51.140;6.290;2023-01-30T08:29:10;100916.91;;;8.84;95.04
25232;BME280;13176;51.140;6.290;2023-01-30T08:31:40;100854.59;;;8.42;95.01
25232;BME280;13176;51.140;6.290;2023-01-30T08:34:11;101049.53;;;9.06;97.29
25232;BME280;13176;51.140;6.290;2023-01-30T08:36:38;101041.75;;;9.02;97.63
25232;BME280;13176;51.140;6.290;2023-01-30T08:39:04;100955.09;;;8.70;96.00
25232;BME280;13176;51.140;6.290;2023-01-30T08:41:31;101071.16;;;9.34;95.93
25232;BME280;13176;51.140;6.290;2023-01-30T08:43:57;101024.41;;;8.95;94.14
25232;BME280;13176;51.140;6.290;2023-01-30T08:46:24;100986.28;;;8.78;93.63
25232;BME280;13176;51.140;6.290;2023-01-30T08:48:50;100976.81;;;8.53;95.40
25232;BME280;13176;51.140;6.290;2023-01-30T08:51:17;100983.69;;;8.75;94.06
25232;BME280;13176;51.140;6.290;2023-01-30T08:53:44;100999.31;;;8.67;93.35
25232;BME280;13176;51.140;6.290;2023-01-30T08:56:10;100969.84;;;8.56;94.12
25232;BME280;13176;51.140;6.290;2023-01-30T08:58:37;100936.94;;;8.21;94.59
25232;BME280;13176;51.140;6.290;2023-01-30T09:01:06;101048.63;;;9.18;92.34
25232;BME280;13176;51.140;6.290;2023-01-30T09:03:32;100951.63;;;8.61;92.03
25232;BME280;13176;51.140;6.290;2023-01-30T09:05:59;100993.25;;;8.62;90.96
25232;BME280;13176;51.140;6.290;2023-01-30T09:08:26;101031.34;;;8.90;90.77
25232;BME280;13176;51.140;6.290;2023-01-30T09:10:57;100946.47;;;8.25;91.35
25232;BME280;13176;51.140;6.290;2023-01-30T09:13:24;100942.97;;;8.60;89.72
25232;BME280;13176;51.140;6.290;2023-01-30T09:15:50;101098.97;;;9.11;89.57
25232;BME280;13176;51.140;6.290;2023-01-30T09:18:17;101090.31;;;9.09;89.15
25232;BME280;13176;51.140;6.290;2023-01-30T09:20:44;101098.06;;;9.33;88.11
25232;BME280;13176;51.140;6.290;2023-01-30T09:23:10;100989.78;;;8.54;87.80
25232;BME280;13176;51.140;6.290;2023-01-30T09:25:37;101020.94;;;8.90;87.12
25232;BME280;13176;51.140;6.290;2023-01-30T09:28:14;101093.75;;;9.11;88.11
25232;BME280;13176;51.140;6.290;2023-01-30T09:31:01;100981.13;;;8.49;87.75
25232;BME280;13176;51.140;6.290;2023-01-30T09:33:28;101101.59;;;9.18;86.37
25232;BME280;13176;51.140;6.290;2023-01-30T09:35:55;101120.66;;;9.20;86.24
25232;BME280;13176;51.140;6.290;2023-01-30T09:38:22;101015.81;;;8.33;84.81
25232;BME280;13176;51.140;6.290;2023-01-30T09:43:34;101123.19;;;9.55;84.65
25232;BME280;13176;51.140;6.290;2023-01-30T09:52:29;101101.56;;;9.26;83.86
25232;BME280;13176;51.140;6.290;2023-01-30T09:54:32;101001.78;;;9.12;82.20
25232;BME280;13176;51.140;6.290;2023-01-30T09:57:20;101024.41;;;8.95;82.06
25232;BME280;13176;51.140;6.290;2023-01-30T09:59:55;101123.16;;;9.64;81.61
25232;BME280;13176;51.140;6.290;2023-01-30T10:02:40;101134.50;;;9.45;81.18
25232;BME280;13176;51.140;6.290;2023-01-30T10:05:12;101116.31;;;9.21;81.64
25232;BME280;13176;51.140;6.290;2023-01-30T10:13:55;101147.34;;;9.96;79.32
25232;BME280;13176;51.140;6.290;2023-01-30T10:25:32;101120.56;;;9.61;77.96
25232;BME280;13176;51.140;6.290;2023-01-30T10:30:48;101079.84;;;9.30;77.46
25232;BME280;13176;51.140;6.290;2023-01-30T10:35:59;101104.09;;;9.50;76.69
25232;BME280;13176;51.140;6.290;2023-01-30T10:38:49;101145.63;;;9.89;76.60
25232;BME280;13176;51.140;6.290;2023-01-30T10:41:22;101144.84;;;9.69;77.05
25232;BME280;13176;51.140;6.290;2023-01-30T10:49:39;101156.16;;;9.62;75.74
25232;BME280;13176;51.140;6.290;2023-01-30T10:52:38;101098.88;;;9.53;74.30
25232;BME280;13176;51.140;6.290;2023-01-30T10:55:28;101152.69;;;9.51;74.67
25232;BME280;13176;51.140;6.290;2023-01-30T10:58:38;101109.38;;;9.14;74.97
25232;BME280;13176;51.140;6.290;2023-01-30T11:01:24;101166.53;;;9.83;73.73
25232;BME280;13176;51.140;6.290;2023-01-30T11:04:06;101150.91;;;9.74;73.73
25232;BME280;13176;51.140;6.290;2023-01-30T11:10:41;101175.25;;;9.70;74.12
25232;BME280;13176;51.140;6.290;2023-01-30T11:13:13;101145.72;;;9.71;73.35
25232;BME280;13176;51.140;6.290;2023-01-30T11:15:43;101149.19;;;9.67;72.27
25232;BME280;13176;51.140;6.290;2023-01-30T11:18:11;101064.31;;;8.97;72.96
25232;BME280;13176;51.140;6.290;2023-01-30T11:26:03;101158.69;;;9.86;71.18
25232;BME280;13176;51.140;6.290;2023-01-30T11:28:42;101169.22;;;9.42;71.93
25232;BME280;13176;51.140;6.290;2023-01-30T11:31:23;100959.41;;;8.82;70.31
25232;BME280;13176;51.140;6.290;2023-01-30T11:34:15;101028.75;;;9.05;71.15
25232;BME280;13176;51.140;6.290;2023-01-30T11:36:42;101038.22;;;9.12;70.03
25232;BME280;13176;51.140;6.290;2023-01-30T11:44:27;101193.44;;;9.80;69.68
25232;BME280;13176;51.140;6.290;2023-01-30T11:46:57;101127.59;;;9.26;69.04
25232;BME280;13176;51.140;6.290;2023-01-30T11:49:30;101127.50;;;9.68;69.08
25232;BME280;13176;51.140;6.290;2023-01-30T11:52:18;101131.00;;;9.49;68.41
25232;BME280;13176;51.140;6.290;2023-01-30T11:54:47;101162.19;;;9.74;68.48
25232;BME280;13176;51.140;6.290;2023-01-30T11:57:17;101081.63;;;9.11;68.43
25232;BME280;13176;51.140;6.290;2023-01-30T11:59:54;100958.59;;;8.45;68.29
25232;BME280;13176;51.140;6.290;2023-01-30T12:02:29;101163.84;;;10.05;67.04
25232;BME280;13176;51.140;6.290;2023-01-30T12:05:19;101143.13;;;9.71;67.25
25232;BME280;13176;51.140;6.290;2023-01-30T12:07:49;100975.84;;;8.88;67.24
25232;BME280;13176;51.140;6.290;2023-01-30T12:12:54;101182.06;;;10.16;66.41
25232;BME280;13176;51.140;6.290;2023-01-30T12:15:27;101160.50;;;9.64;67.05
25232;BME280;13176;51.140;6.290;2023-01-30T12:18:20;101200.34;;;10.02;67.14
25232;BME280;13176;51.140;6.290;2023-01-30T12:20:53;101195.13;;;10.13;67.07
25232;BME280;13176;51.140;6.290;2023-01-30T12:26:33;101152.59;;;9.84;67.08
25232;BME280;13176;51.140;6.290;2023-01-30T12:31:45;101175.16;;;9.97;66.31
25232;BME280;13176;51.140;6.290;2023-01-30T12:34:12;101109.22;;;9.74;66.14
25232;BME280;13176;51.140;6.290;2023-01-30T12:45:05;101190.72;;;10.20;64.96
25232;BME280;13176;51.140;6.290;2023-01-30T12:50:22;101184.63;;;10.23;64.43
25232;BME280;13176;51.140;6.290;2023-01-30T12:58:20;101151.78;;;9.65;64.82
25232;BME280;13176;51.140;6.290;2023-01-30T13:01:19;101186.25;;;10.46;63.21
25232;BME280;13176;51.140;6.290;2023-01-30T13:04:09;101167.31;;;10.12;63.68
25232;BME280;13176;51.140;6.290;2023-01-30T13:12:41;101138.34;;;10.56;62.35
25232;BME280;13176;51.140;6.290;2023-01-30T13:15:27;101140.78;;;10.82;61.68
25232;BME280;13176;51.140;6.290;2023-01-30T13:23:29;101186.91;;;10.81;61.25
25232;BME280;13176;51.140;6.290;2023-01-30T13:26:05;101206.19;;;10.56;62.32
25232;BME280;13176;51.140;6.290;2023-01-30T13:28:37;101217.56;;;10.43;61.59
25232;BME280;13176;51.140;6.290;2023-01-30T13:31:08;101200.91;;;10.68;61.30
25232;BME280;13176;51.140;6.290;2023-01-30T13:33:40;101221.59;;;10.95;60.89
25232;BME280;13176;51.140;6.290;2023-01-30T13:36:26;101226.91;;;10.83;61.21
25232;BME280;13176;51.140;6.290;2023-01-30T13:39:02;101229.81;;;10.34;60.96
25232;BME280;13176;51.140;6.290;2023-01-30T13:41:33;101221.22;;;10.04;61.83
25232;BME280;13176;51.140;6.290;2023-01-30T13:44:16;101252.44;;;10.21;61.77
25232;BME280;13176;51.140;6.290;2023-01-30T13:46:50;101133.59;;;9.61;61.50
25232;BME280;13176;51.140;6.290;2023-01-30T13:52:26;101213.28;;;10.30;60.23
25232;BME280;13176;51.140;6.290;2023-01-30T14:00:53;101269.50;;;10.93;58.95
25232;BME280;13176;51.140;6.290;2023-01-30T14:08:24;101284.41;;;10.73;59.04
25232;BME280;13176;51.140;6.290;2023-01-30T14:10:53;101246.06;;;10.82;58.56
25232;BME280;13176;51.140;6.290;2023-01-30T14:13:22;101294.72;;;10.94;58.47
25232;BME280;13176;51.140;6.290;2023-01-30T14:18:27;101294.06;;;10.51;58.18
25232;BME280;13176;51.140;6.290;2023-01-30T14:21:20;101275.75;;;10.62;58.63
25232;BME280;13176;51.140;6.290;2023-01-30T14:24:01;101310.44;;;10.83;57.99
25232;BME280;13176;51.140;6.290;2023-01-30T14:34:43;101225.56;;;10.08;57.83
25232;BME280;13176;51.140;6.290;2023-01-30T14:37:44;101328.81;;;10.56;58.62
25232;BME280;13176;51.140;6.290;2023-01-30T14:45:51;101280.09;;;10.63;57.87
25232;BME280;13176;51.140;6.290;2023-01-30T14:48:44;101332.28;;;10.58;58.61
25232;BME280;13176;51.140;6.290;2023-01-30T14:51:35;101336.72;;;10.35;59.51
25232;BME280;13176;51.140;6.290;2023-01-30T14:59:28;101348.81;;;10.63;58.75
25232;BME280;13176;51.140;6.290;2023-01-30T15:02:23;101358.31;;;10.75;58.99
25232;BME280;13176;51.140;6.290;2023-01-30T15:07:49;101365.25;;;10.82;58.87
25232;BME280;13176;51.140;6.290;2023-01-30T15:10:46;101341.84;;;10.56;59.11
25232;BME280;13176;51.140;6.290;2023-01-30T15:19:17;101386.22;;;10.55;59.13
25232;BME280;13176;51.140;6.290;2023-01-30T15:21:57;101392.34;;;10.55;59.02
25232;BME280;13176;51.140;6.290;2023-01-30T15:27:34;101366.28;;;10.31;59.00
25232;BME280;13176;51.140;6.290;2023-01-30T15:32:43;101408.03;;;10.37;58.95
25232;BME280;13176;51.140;6.290;2023-01-30T15:43:01;101408.91;;;10.20;59.05
25232;BME280;13176;51.140;6.290;2023-01-30T15:45:46;101434.97;;;10.38;59.12
25232;BME280;13176;51.140;6.290;2023-01-30T15:48:34;101437.56;;;10.39;59.74
25232;BME280;13176;51.140;6.290;2023-01-30T16:02:13;101442.81;;;10.19;60.18
25232;BME280;13176;51.140;6.290;2023-01-30T16:04:41;101411.50;;;9.95;60.14
25232;BME280;13176;51.140;6.290;2023-01-30T16:09:41;101444.50;;;9.93;60.24
25232;BME280;13176;51.140;6.290;2023-01-30T16:12:24;101461.88;;;9.91;61.59
25232;BME280;13176;51.140;6.290;2023-01-30T16:14:51;101449.75;;;10.31;60.05
25232;BME280;13176;51.140;6.290;2023-01-30T16:17:37;101435.84;;;10.00;60.79
25232;BME280;13176;51.140;6.290;2023-01-30T16:20:04;101425.38;;;9.67;61.22